Time;durP1;ratioP1;P1;durP2;ratioP2;P2;SDS_P1;SDS_P2;PMS_P1;PMS_P2;Temp;Humidity;BMP_temperature;BMP_pressure;BME280_temperature;BME280_humidity;BME280_pressure;Samples;Min_cycle;Max_cycle;Signal;HPM_P1;HPM_P2
2023/09/08 00:00:01;;;;;;;1.27;1.17;;;23.80;99.90;;;;;;5013154;28;20374;-80
2023/09/08 00:02:30;;;;;;;0.00;0.00;;;23.90;99.90;;;;;;4999736;28;20038;-79
2023/09/08 00:04:55;;;;;;;0.10;0.10;;;23.70;99.90;;;;;;5013211;28;20030;-80
2023/09/08 00:07:21;;;;;;;0.00;0.00;;;23.80;99.90;;;;;;5012870;28;20028;-80
2023/09/08 00:09:47;;;;;;;0.00;0.00;;;23.70;99.90;;;;;;5012040;28;20042;-80
2023/09/08 00:12:13;;;;;;;0.63;0.63;;;23.60;99.90;;;;;;5011549;28;20060;-80
2023/09/08 00:14:39;;;;;;;0.10;0.10;;;23.80;99.90;;;;;;5012993;28;20442;-80
2023/09/08 00:17:04;;;;;;;0.00;0.00;;;24.00;99.90;;;;;;5012934;28;20037;-79
2023/09/08 00:19:30;;;;;;;0.00;0.00;;;24.10;99.90;;;;;;5013084;28;20056;-79
2023/09/08 00:21:56;;;;;;;0.05;0.05;;;23.90;99.90;;;;;;5011330;28;20086;-80
2023/09/08 00:24:22;;;;;;;0.00;0.00;;;23.80;99.90;;;;;;5011522;28;20037;-80
2023/09/08 00:26:48;;;;;;;0.00;0.00;;;23.70;99.90;;;;;;5012882;28;20038;-79
2023/09/08 00:29:14;;;;;;;0.10;0.10;;;23.50;99.90;;;;;;5012517;28;20042;-79
2023/09/08 00:31:41;;;;;;;0.08;0.08;;;23.40;99.90;;;;;;5012779;28;20480;-79
2023/09/08 00:34:07;;;;;;;0.10;0.10;;;23.30;99.90;;;;;;4995218;28;20029;-80
2023/09/08 00:36:33;;;;;;;0.00;0.00;;;23.30;99.90;;;;;;5027760;28;20022;-80
2023/09/08 00:38:59;;;;;;;0.00;0.00;;;23.10;99.90;;;;;;5011360;28;20029;-80
2023/09/08 00:41:24;;;;;;;0.03;0.03;;;22.90;99.90;;;;;;5011329;28;20042;-79
2023/09/08 00:43:50;;;;;;;0.00;0.00;;;22.70;99.90;;;;;;5027593;28;20014;-79
2023/09/08 00:46:17;;;;;;;0.10;0.10;;;22.70;99.90;;;;;;5011294;28;20097;-79
2023/09/08 00:48:43;;;;;;;0.10;0.10;;;22.80;99.90;;;;;;5011379;28;20382;-79
2023/09/08 00:51:09;;;;;;;0.00;0.00;;;23.10;99.90;;;;;;5027445;28;20038;-80
2023/09/08 00:53:36;;;;;;;0.10;0.10;;;23.00;99.90;;;;;;5011225;28;20488;-80
2023/09/08 00:56:02;;;;;;;0.00;0.00;;;23.00;99.90;;;;;;5011076;28;20026;-79
2023/09/08 00:58:29;;;;;;;0.00;0.00;;;23.00;99.90;;;;;;5012349;28;20030;-80
2023/09/08 01:00:57;;;;;;;0.00;0.00;;;23.10;99.90;;;;;;5027358;28;20470;-80
2023/09/08 01:03:24;;;;;;;0.13;0.13;;;23.10;99.90;;;;;;5010565;28;20500;-79
2023/09/08 01:05:51;;;;;;;0.10;0.10;;;23.00;99.90;;;;;;5011741;28;20430;-80
2023/09/08 01:08:17;;;;;;;0.00;0.00;;;22.90;99.90;;;;;;4994672;28;20413;-78
2023/09/08 01:10:43;;;;;;;0.10;0.10;;;22.80;99.90;;;;;;5012256;28;20370;-79
2023/09/08 01:13:09;;;;;;;0.00;0.00;;;22.70;99.90;;;;;;5010987;28;20022;-80
2023/09/08 01:15:35;;;;;;;0.10;0.10;;;22.70;99.90;;;;;;5012002;28;20022;-80
2023/09/08 01:18:01;;;;;;;0.00;0.00;;;22.70;99.90;;;;;;5011973;28;20388;-79
2023/09/08 01:20:55;;;;;;;0.00;0.00;;;22.70;99.90;;;;;;5010514;28;20100;-78
2023/09/08 01:23:50;;;;;;;0.00;0.00;;;22.50;99.90;;;;;;5010873;28;20069;-80
2023/09/08 01:26:21;;;;;;;0.00;0.00;;;22.40;99.90;;;;;;5016519;28;20047;-79
2023/09/08 01:28:50;;;;;;;0.00;0.00;;;22.30;99.90;;;;;;5010424;28;20076;-79
2023/09/08 01:31:17;;;;;;;0.00;0.00;;;22.30;99.90;;;;;;4994267;28;20060;-79
2023/09/08 01:33:43;;;;;;;0.32;0.32;;;22.20;99.90;;;;;;5010425;28;20026;-79
2023/09/08 01:36:10;;;;;;;0.10;0.10;;;22.40;99.90;;;;;;5008389;28;20030;-80
2023/09/08 01:38:36;;;;;;;0.00;0.00;;;22.70;99.90;;;;;;4993885;28;20031;-79
2023/09/08 01:41:02;;;;;;;0.10;0.10;;;22.70;99.90;;;;;;5009255;28;20497;-79
2023/09/08 01:43:28;;;;;;;0.00;0.00;;;22.60;99.90;;;;;;5011842;28;20101;-79
2023/09/08 01:45:53;;;;;;;0.17;0.17;;;22.70;99.90;;;;;;5010259;28;20029;-79
2023/09/08 01:48:19;;;;;;;0.00;0.00;;;22.50;99.90;;;;;;5010387;28;20022;-79
2023/09/08 01:50:46;;;;;;;0.00;0.00;;;22.20;99.90;;;;;;4993631;28;20041;-79
2023/09/08 01:53:12;;;;;;;0.00;0.00;;;22.30;99.90;;;;;;5011470;28;20459;-79
2023/09/08 01:55:38;;;;;;;0.03;0.03;;;22.30;99.90;;;;;;5010260;28;20116;-79
2023/09/08 01:58:04;;;;;;;0.10;0.10;;;22.50;99.90;;;;;;5010113;28;20032;-79
2023/09/08 02:00:30;;;;;;;3.22;1.58;;;22.50;99.90;;;;;;5009699;28;20033;-79
2023/09/08 02:02:56;;;;;;;0.00;0.00;;;22.30;99.90;;;;;;5009426;28;20037;-79
2023/09/08 02:05:22;;;;;;;0.15;0.15;;;22.30;99.90;;;;;;4989989;28;20026;-79
2023/09/08 02:07:49;;;;;;;0.10;0.10;;;22.20;99.90;;;;;;5021199;28;20038;-79
2023/09/08 02:10:15;;;;;;;0.00;0.00;;;22.10;99.90;;;;;;5010880;28;20033;-79
2023/09/08 02:12:40;;;;;;;0.00;0.00;;;22.10;99.90;;;;;;4993733;28;20026;-79
2023/09/08 02:15:07;;;;;;;0.00;0.00;;;22.00;99.90;;;;;;4993364;28;20026;-79
2023/09/08 02:17:33;;;;;;;0.00;0.00;;;22.10;99.90;;;;;;5010206;28;20091;-79
2023/09/08 02:19:59;;;;;;;0.00;0.00;;;22.20;99.90;;;;;;5010596;28;20398;-79
2023/09/08 02:22:25;;;;;;;0.00;0.00;;;22.20;99.90;;;;;;5010017;28;20022;-79
2023/09/08 02:24:51;;;;;;;0.10;0.10;;;22.00;99.90;;;;;;5009550;28;20385;-79
2023/09/08 02:27:19;;;;;;;0.00;0.00;;;21.90;99.90;;;;;;5009906;28;20018;-80
2023/09/08 02:29:47;;;;;;;0.08;0.08;;;21.80;99.90;;;;;;5009485;28;20038;-78
2023/09/08 02:32:14;;;;;;;0.47;0.47;;;21.90;99.90;;;;;;5010960;28;20109;-79
2023/09/08 02:34:42;;;;;;;0.00;0.00;;;21.90;99.90;;;;;;5009328;28;20044;-79
2023/09/08 02:37:08;;;;;;;0.00;0.00;;;21.90;99.90;;;;;;4999512;28;20047;-79
2023/09/08 02:39:35;;;;;;;0.03;0.03;;;21.60;99.90;;;;;;5009286;28;20029;-79
2023/09/08 02:42:01;;;;;;;0.00;0.00;;;21.50;99.90;;;;;;5009542;28;20022;-79
2023/09/08 02:44:29;;;;;;;0.10;0.10;;;21.80;99.90;;;;;;5009657;28;20026;-79
2023/09/08 02:46:55;;;;;;;0.00;0.00;;;21.80;99.90;;;;;;5008994;28;20030;-78
2023/09/08 02:49:21;;;;;;;0.00;0.00;;;21.90;99.90;;;;;;5009174;28;20145;-79
2023/09/08 02:51:47;;;;;;;0.00;0.00;;;21.80;99.90;;;;;;5009360;28;20021;-79
2023/09/08 02:54:12;;;;;;;0.00;0.00;;;21.80;99.90;;;;;;5009312;28;20512;-79
2023/09/08 02:56:38;;;;;;;0.03;0.03;;;21.80;99.90;;;;;;5010584;28;20030;-79
2023/09/08 02:59:04;;;;;;;3.95;3.63;;;21.60;99.90;;;;;;5008969;28;20566;-79
2023/09/08 03:01:30;;;;;;;2.78;2.58;;;21.50;99.90;;;;;;5008870;28;20627;-79
2023/09/08 03:03:55;;;;;;;0.00;0.00;;;21.40;99.90;;;;;;5009413;28;20070;-80
2023/09/08 03:06:22;;;;;;;0.10;0.10;;;21.50;99.90;;;;;;5009069;28;20080;-79
2023/09/08 03:08:49;;;;;;;0.10;0.10;;;21.60;99.90;;;;;;4993095;28;20036;-80
2023/09/08 03:11:14;;;;;;;0.00;0.00;;;21.60;99.90;;;;;;5005596;28;20030;-78
2023/09/08 03:13:40;;;;;;;0.10;0.10;;;21.50;99.90;;;;;;5011981;28;20527;-79
2023/09/08 03:16:08;;;;;;;0.00;0.00;;;21.30;99.90;;;;;;5009856;28;20069;-79
2023/09/08 03:18:36;;;;;;;0.03;0.03;;;21.30;99.90;;;;;;5010365;28;20021;-79
2023/09/08 03:21:11;;;;;;;0.00;0.00;;;21.50;99.90;;;;;;5010056;28;20034;-79
2023/09/08 03:23:43;;;;;;;0.00;0.00;;;21.50;99.90;;;;;;5008871;28;20390;-79
2023/09/08 03:26:10;;;;;;;0.00;0.00;;;21.50;99.90;;;;;;5008951;28;20030;-79
2023/09/08 03:28:37;;;;;;;0.00;0.00;;;21.50;99.90;;;;;;5010225;28;20064;-79
2023/09/08 03:31:03;;;;;;;0.10;0.10;;;21.30;99.90;;;;;;5009922;28;20030;-79
2023/09/08 03:33:32;;;;;;;0.00;0.00;;;21.30;99.90;;;;;;5008788;28;20442;-80
2023/09/08 03:35:58;;;;;;;0.00;0.00;;;21.40;99.90;;;;;;5008646;28;20143;-79
2023/09/08 03:38:24;;;;;;;0.00;0.00;;;21.30;99.90;;;;;;5008751;28;20071;-79
2023/09/08 03:40:52;;;;;;;3.72;3.22;;;21.20;99.90;;;;;;5008694;28;20026;-79
2023/09/08 03:43:18;;;;;;;0.00;0.00;;;21.10;99.90;;;;;;5008882;28;20123;-79
2023/09/08 03:45:44;;;;;;;0.00;0.00;;;21.10;99.90;;;;;;4992081;28;20470;-79
2023/09/08 03:48:10;;;;;;;0.65;0.55;;;21.00;99.90;;;;;;5008694;28;20049;-79
2023/09/08 03:50:36;;;;;;;0.10;0.10;;;21.00;99.90;;;;;;5008556;28;20044;-79
2023/09/08 03:53:02;;;;;;;0.20;0.20;;;20.90;99.90;;;;;;4992383;28;20022;-79
2023/09/08 03:55:28;;;;;;;0.47;0.47;;;20.80;99.90;;;;;;5009813;28;20037;-77
2023/09/08 03:57:54;;;;;;;0.00;0.00;;;20.90;99.90;;;;;;5009832;28;20382;-79
2023/09/08 04:00:21;;;;;;;0.00;0.00;;;21.00;99.90;;;;;;5009490;28;20507;-79
2023/09/08 04:02:51;;;;;;;0.00;0.00;;;20.90;99.90;;;;;;5008313;28;20030;-79
2023/09/08 04:05:17;;;;;;;0.10;0.10;;;20.70;99.90;;;;;;5008429;28;20037;-79
2023/09/08 04:07:47;;;;;;;0.00;0.00;;;20.70;99.90;;;;;;5007918;28;20037;-79
2023/09/08 04:10:13;;;;;;;0.00;0.00;;;20.80;99.90;;;;;;4991745;28;20037;-79
2023/09/08 04:12:40;;;;;;;0.00;0.00;;;20.80;99.90;;;;;;5009690;28;20026;-79
2023/09/08 04:15:07;;;;;;;0.10;0.10;;;20.90;99.90;;;;;;5008208;28;20446;-79
2023/09/08 04:17:33;;;;;;;0.00;0.00;;;20.90;99.90;;;;;;5008387;28;20113;-79
2023/09/08 04:19:59;;;;;;;0.00;0.00;;;20.80;99.90;;;;;;5007986;28;20034;-79
2023/09/08 04:22:25;;;;;;;0.10;0.10;;;20.80;99.90;;;;;;5008307;28;20030;-79
2023/09/08 04:24:53;;;;;;;0.00;0.00;;;20.80;99.90;;;;;;5008312;28;20040;-79
2023/09/08 04:27:19;;;;;;;0.05;0.05;;;20.90;99.90;;;;;;4996468;28;20063;-79
2023/09/08 04:29:44;;;;;;;0.20;0.20;;;20.80;99.90;;;;;;5011113;28;20041;-80
2023/09/08 04:32:10;;;;;;;0.10;0.10;;;20.60;99.90;;;;;;4995085;28;20026;-79
2023/09/08 04:34:41;;;;;;;0.00;0.00;;;20.40;99.90;;;;;;5012873;28;20110;-79
2023/09/08 04:37:07;;;;;;;0.00;0.00;;;20.50;99.90;;;;;;5011431;28;20453;-79
2023/09/08 04:39:34;;;;;;;0.10;0.10;;;20.60;99.90;;;;;;5012711;28;20026;-80
2023/09/08 04:42:01;;;;;;;0.00;0.00;;;20.50;99.90;;;;;;5011479;28;20034;-79
2023/09/08 04:44:28;;;;;;;0.08;0.08;;;20.60;99.90;;;;;;4994778;28;20033;-77
2023/09/08 04:46:54;;;;;;;0.00;0.00;;;20.60;99.90;;;;;;5011403;28;20091;-75
2023/09/08 04:49:21;;;;;;;0.00;0.00;;;20.80;99.90;;;;;;5010878;28;20034;-75
2023/09/08 04:51:46;;;;;;;0.00;0.00;;;20.90;99.90;;;;;;5057611;28;20410;-75
2023/09/08 04:54:15;;;;;;;0.00;0.00;;;20.80;99.90;;;;;;5029943;28;20386;-75
2023/09/08 04:56:42;;;;;;;0.00;0.00;;;20.80;99.90;;;;;;4990870;28;20030;-75
2023/09/08 04:59:07;;;;;;;0.10;0.10;;;20.70;99.90;;;;;;5012917;28;20018;-75
2023/09/08 05:01:36;;;;;;;0.10;0.10;;;20.60;99.90;;;;;;5082331;28;20479;-74
2023/09/08 05:04:04;;;;;;;0.00;0.00;;;20.50;99.90;;;;;;5062518;28;20035;-74
2023/09/08 05:06:30;;;;;;;0.00;0.00;;;20.50;99.90;;;;;;5030425;28;20069;-74
2023/09/08 05:08:55;;;;;;;0.43;0.43;;;20.40;99.90;;;;;;5032850;27;20030;-74
2023/09/08 05:11:23;;;;;;;0.10;0.10;;;20.00;99.90;;;;;;5034565;28;20065;-73
2023/09/08 05:13:49;;;;;;;0.00;0.00;;;20.10;99.90;;;;;;5041740;28;20479;-73
2023/09/08 05:16:17;;;;;;;0.00;0.00;;;20.20;99.90;;;;;;5094384;28;20028;-73
2023/09/08 05:18:48;;;;;;;0.90;0.82;;;20.10;99.90;;;;;;5029087;28;20117;-74
2023/09/08 05:21:15;;;;;;;0.00;0.00;;;20.10;99.90;;;;;;5038200;28;20478;-74
2023/09/08 05:23:41;;;;;;;0.00;0.00;;;20.20;99.90;;;;;;5020238;28;20030;-74
2023/09/08 05:26:09;;;;;;;0.40;0.40;;;20.10;99.90;;;;;;5038609;28;20023;-75
2023/09/08 05:28:35;;;;;;;0.00;0.00;;;20.00;99.90;;;;;;5076186;28;20424;-75
2023/09/08 05:31:01;;;;;;;0.10;0.10;;;20.20;99.90;;;;;;5046649;28;20038;-77
2023/09/08 05:33:26;;;;;;;0.00;0.00;;;20.20;99.90;;;;;;5044647;28;20028;-77
2023/09/08 05:35:53;;;;;;;0.00;0.00;;;20.20;99.90;;;;;;5043274;28;20115;-76
2023/09/08 05:38:18;;;;;;;0.08;0.08;;;20.30;99.90;;;;;;5097351;28;20073;-77
2023/09/08 05:40:44;;;;;;;0.00;0.00;;;20.30;99.90;;;;;;5062575;28;20019;-76
2023/09/08 05:43:10;;;;;;;0.00;0.00;;;20.50;99.90;;;;;;5046071;28;20482;-76
2023/09/08 05:45:36;;;;;;;0.08;0.08;;;20.50;99.90;;;;;;5032914;28;20030;-76
2023/09/08 05:48:03;;;;;;;0.00;0.00;;;20.70;99.90;;;;;;5049991;28;20480;-76
2023/09/08 05:50:30;;;;;;;0.00;0.00;;;20.90;99.90;;;;;;5056442;28;20517;-76
2023/09/08 05:52:56;;;;;;;0.00;0.00;;;21.00;99.90;;;;;;5051091;28;20476;-76
2023/09/08 05:55:22;;;;;;;0.00;0.00;;;21.00;99.90;;;;;;5049252;28;20030;-77
2023/09/08 05:57:48;;;;;;;0.40;0.40;;;21.20;99.90;;;;;;5016058;28;20025;-76
2023/09/08 06:00:14;;;;;;;0.35;0.35;;;21.20;99.90;;;;;;5008281;28;20037;-74
2023/09/08 06:02:44;;;;;;;0.00;0.00;;;21.20;99.90;;;;;;5020049;28;20026;-76
2023/09/08 06:05:12;;;;;;;0.00;0.00;;;21.30;99.90;;;;;;5021497;28;20375;-75
2023/09/08 06:07:39;;;;;;;0.10;0.10;;;21.20;99.90;;;;;;5024589;27;20022;-77
2023/09/08 06:10:07;;;;;;;0.00;0.00;;;21.30;99.90;;;;;;5018933;28;20088;-76
2023/09/08 06:12:33;;;;;;;0.00;0.00;;;21.30;99.90;;;;;;5019148;28;20158;-76
2023/09/08 06:14:59;;;;;;;0.00;0.00;;;21.30;99.90;;;;;;4998643;28;20047;-77
2023/09/08 06:17:25;;;;;;;0.05;0.05;;;21.40;99.90;;;;;;5023925;28;20097;-76
2023/09/08 06:19:53;;;;;;;0.00;0.00;;;21.70;99.90;;;;;;5028658;28;20043;-76
2023/09/08 06:22:19;;;;;;;0.00;0.00;;;21.70;99.90;;;;;;4997153;28;20378;-76
2023/09/08 06:24:45;;;;;;;0.00;0.00;;;21.80;99.90;;;;;;5012531;28;20386;-79
2023/09/08 06:27:12;;;;;;;0.47;0.40;;;21.80;99.90;;;;;;5015274;28;20030;-79
2023/09/08 06:29:39;;;;;;;0.35;0.35;;;21.80;99.90;;;;;;4990757;28;20062;-79
2023/09/08 06:32:06;;;;;;;0.00;0.00;;;21.80;99.90;;;;;;5004585;28;20050;-79
2023/09/08 06:34:34;;;;;;;0.10;0.10;;;21.80;99.90;;;;;;5013692;28;20044;-79
2023/09/08 06:37:00;;;;;;;0.10;0.10;;;22.00;99.90;;;;;;4995622;28;20045;-80
2023/09/08 06:39:26;;;;;;;0.00;0.00;;;21.80;99.90;;;;;;5004380;28;20050;-80
2023/09/08 06:41:52;;;;;;;15.90;1.65;;;21.90;99.90;;;;;;5000989;28;20030;-80
2023/09/08 06:44:20;;;;;;;0.63;0.63;;;21.80;99.90;;;;;;5036501;28;20040;-80
2023/09/08 06:46:46;;;;;;;0.30;0.30;;;21.90;99.90;;;;;;5010276;28;20030;-80
2023/09/08 06:49:12;;;;;;;0.10;0.10;;;21.90;99.90;;;;;;5016253;28;20034;-80
2023/09/08 06:51:39;;;;;;;2.05;1.85;;;22.00;99.90;;;;;;5024659;28;20092;-79
2023/09/08 06:54:13;;;;;;;0.43;0.43;;;21.90;99.90;;;;;;5037041;27;20463;-79
2023/09/08 06:56:42;;;;;;;0.55;0.55;;;22.00;99.90;;;;;;5028825;28;20029;-80
2023/09/08 06:59:08;;;;;;;2.20;1.13;;;22.10;99.90;;;;;;5005642;28;20093;-79
2023/09/08 07:01:35;;;;;;;0.00;0.00;;;22.30;99.90;;;;;;4993426;28;20093;-80
2023/09/08 07:04:01;;;;;;;0.45;0.45;;;22.30;99.90;;;;;;4997013;28;20359;-79
2023/09/08 07:06:28;;;;;;;0.00;0.00;;;22.30;99.90;;;;;;5007410;28;20026;-83
2023/09/08 07:08:55;;;;;;;0.00;0.00;;;22.30;99.90;;;;;;5009176;28;20038;-83
2023/09/08 07:11:21;;;;;;;0.85;0.85;;;22.30;99.90;;;;;;5006608;28;20444;-79
2023/09/08 07:13:48;;;;;;;0.20;0.20;;;22.40;99.90;;;;;;5016622;28;20080;-79
2023/09/08 07:16:14;;;;;;;0.20;0.20;;;22.60;99.90;;;;;;5008184;28;20129;-80
2023/09/08 07:18:40;;;;;;;0.00;0.00;;;22.70;99.90;;;;;;5007492;28;20112;-79
2023/09/08 07:21:07;;;;;;;1.40;1.30;;;22.70;99.90;;;;;;4996741;28;20344;-80
2023/09/08 07:23:36;;;;;;;0.80;0.65;;;22.60;99.90;;;;;;4996854;28;20025;-80
2023/09/08 07:26:02;;;;;;;0.00;0.00;;;22.70;99.90;;;;;;5003060;28;20088;-81
2023/09/08 07:28:30;;;;;;;1.15;1.08;;;22.80;99.90;;;;;;5013076;28;20474;-82
2023/09/08 07:31:06;;;;;;;0.00;0.00;;;23.00;99.90;;;;;;5021528;28;20035;-80
2023/09/08 07:33:36;;;;;;;1.02;0.98;;;23.10;99.90;;;;;;5023665;28;20379;-80
2023/09/08 07:36:07;;;;;;;2.05;0.55;;;23.10;99.90;;;;;;5017258;28;20190;-80
2023/09/08 07:38:34;;;;;;;0.10;0.10;;;23.10;99.90;;;;;;5019768;28;20106;-82
2023/09/08 07:41:02;;;;;;;0.20;0.20;;;23.40;99.90;;;;;;5003684;28;20381;-80
2023/09/08 07:43:28;;;;;;;0.20;0.20;;;23.50;99.90;;;;;;5019229;28;20029;-81
2023/09/08 07:45:54;;;;;;;0.10;0.10;;;23.70;99.90;;;;;;5040355;27;20462;-78
2023/09/08 07:48:20;;;;;;;0.30;0.30;;;23.90;99.90;;;;;;5010460;28;20038;-79
2023/09/08 07:50:46;;;;;;;0.40;0.40;;;23.80;99.90;;;;;;5007984;28;20038;-83
2023/09/08 07:53:12;;;;;;;0.80;0.80;;;23.80;99.90;;;;;;5043960;28;20395;-86
2023/09/08 07:55:38;;;;;;;0.00;0.00;;;23.60;99.90;;;;;;5033735;28;20108;-81
2023/09/08 07:58:04;;;;;;;1.30;0.85;;;23.70;99.90;;;;;;5039076;28;20121;-81
2023/09/08 08:00:30;;;;;;;0.70;0.70;;;24.00;99.90;;;;;;5008522;28;20064;-85
2023/09/08 08:02:57;;;;;;;0.82;0.40;;;24.00;99.90;;;;;;4996265;28;20097;-77
2023/09/08 08:05:25;;;;;;;0.00;0.00;;;24.40;99.90;;;;;;5004746;28;20026;-77
2023/09/08 08:07:51;;;;;;;0.10;0.10;;;24.30;99.90;;;;;;5009675;28;20369;-78
2023/09/08 08:10:18;;;;;;;0.10;0.10;;;24.60;99.90;;;;;;5013660;28;20056;-76
2023/09/08 08:12:44;;;;;;;0.52;0.50;;;24.80;99.90;;;;;;5023182;28;20030;-77
2023/09/08 08:15:10;;;;;;;1.15;1.08;;;24.60;99.90;;;;;;5009646;28;20480;-75
2023/09/08 08:17:37;;;;;;;2.35;2.15;;;24.40;99.90;;;;;;4996247;28;20037;-75
2023/09/08 08:20:09;;;;;;;0.95;0.95;;;24.40;99.90;;;;;;5000373;28;20026;-79
2023/09/08 08:22:38;;;;;;;1.67;0.85;;;24.50;99.90;;;;;;4997390;28;20375;-80
2023/09/08 08:25:05;;;;;;;0.22;0.22;;;24.60;99.90;;;;;;4997772;28;20435;-78
2023/09/08 08:27:31;;;;;;;0.00;0.00;;;24.70;99.90;;;;;;5012494;28;20486;-78
2023/09/08 08:30:00;;;;;;;0.00;0.00;;;24.80;99.90;;;;;;4995839;28;20042;-74
2023/09/08 08:32:27;;;;;;;0.10;0.10;;;24.90;99.90;;;;;;4995277;28;20026;-81
2023/09/08 08:34:53;;;;;;;1.55;0.98;;;25.20;99.90;;;;;;5000747;28;20030;-71
2023/09/08 08:37:19;;;;;;;0.00;0.00;;;25.40;99.90;;;;;;5006275;28;20022;-78
2023/09/08 08:39:45;;;;;;;0.00;0.00;;;25.50;99.90;;;;;;5000862;28;20367;-78
2023/09/08 08:42:11;;;;;;;0.03;0.03;;;25.60;99.90;;;;;;4993839;28;20030;-78
2023/09/08 08:44:41;;;;;;;0.00;0.00;;;25.70;99.90;;;;;;4991874;28;20026;-78
2023/09/08 08:47:08;;;;;;;0.10;0.10;;;25.70;99.90;;;;;;4997220;28;20034;-77
2023/09/08 08:49:35;;;;;;;0.08;0.08;;;25.90;99.90;;;;;;4997460;28;20038;-80
2023/09/08 08:52:06;;;;;;;0.40;0.40;;;26.00;99.90;;;;;;5004742;28;20406;-80
2023/09/08 08:54:38;;;;;;;0.10;0.10;;;26.30;99.90;;;;;;5006153;28;20061;-79
2023/09/08 08:57:05;;;;;;;0.00;0.00;;;26.40;99.90;;;;;;5007817;28;20034;-79
2023/09/08 08:59:32;;;;;;;0.03;0.03;;;26.70;99.90;;;;;;5000440;28;20474;-78
2023/09/08 09:01:59;;;;;;;0.77;0.75;;;26.90;99.90;;;;;;4997041;28;20030;-81
2023/09/08 09:04:26;;;;;;;0.00;0.00;;;27.00;99.90;;;;;;4997212;28;20042;-75
2023/09/08 09:06:55;;;;;;;0.08;0.08;;;26.70;99.90;;;;;;4994515;28;20030;-80
2023/09/08 09:09:21;;;;;;;0.00;0.00;;;27.10;99.90;;;;;;5004075;28;20057;-76
2023/09/08 09:11:47;;;;;;;0.00;0.00;;;27.40;99.90;;;;;;5007251;28;20527;-75
2023/09/08 09:14:12;;;;;;;0.43;0.40;;;27.50;99.90;;;;;;4996744;28;20018;-79
2023/09/08 09:16:43;;;;;;;0.13;0.13;;;27.60;99.90;;;;;;4997990;28;21236;-81
2023/09/08 09:19:09;;;;;;;0.20;0.20;;;27.50;99.90;;;;;;5004937;28;20067;-83
2023/09/08 09:21:47;;;;;;;0.65;0.55;;;27.30;99.90;;;;;;4995474;28;20425;-83
2023/09/08 09:24:31;;;;;;;1.05;0.95;;;27.50;99.90;;;;;;5009294;28;20030;-84
2023/09/08 09:26:57;;;;;;;0.00;0.00;;;27.30;99.90;;;;;;5015045;28;20109;-83
2023/09/08 09:29:23;;;;;;;0.00;0.00;;;27.70;99.90;;;;;;5011649;27;20124;-89
2023/09/08 09:31:57;;;;;;;0.00;0.00;;;28.00;99.90;;;;;;4999065;28;20062;-81
2023/09/08 09:34:24;;;;;;;2.25;0.52;;;27.70;99.90;;;;;;5002480;28;20022;-80
2023/09/08 09:36:51;;;;;;;0.17;0.17;;;27.70;99.90;;;;;;4995861;28;20090;-82
2023/09/08 09:39:18;;;;;;;1.27;1.13;;;27.90;99.90;;;;;;4996257;28;20029;-79
2023/09/08 09:41:48;;;;;;;0.10;0.10;;;27.60;99.90;;;;;;5008454;28;20041;-78
2023/09/08 09:44:15;;;;;;;3.95;1.88;;;27.60;99.90;;;;;;5006302;28;20049;-78
2023/09/08 09:47:01;;;;;;;0.00;0.00;;;27.70;99.90;;;;;;4998759;28;20038;-77
2023/09/08 09:49:31;;;;;;;0.00;0.00;;;27.70;99.90;;;;;;4995679;28;21154;-78
2023/09/08 09:51:58;;;;;;;0.10;0.10;;;28.10;99.90;;;;;;5004825;28;20022;-78
2023/09/08 09:54:24;;;;;;;0.52;0.47;;;28.40;99.90;;;;;;4999136;28;20022;-79
2023/09/08 09:56:51;;;;;;;0.00;0.00;;;28.40;99.90;;;;;;4993789;28;20038;-78
2023/09/08 09:59:17;;;;;;;1.23;1.17;;;28.60;99.90;;;;;;4998245;28;20025;-75
2023/09/08 10:01:43;;;;;;;0.00;0.00;;;28.80;99.90;;;;;;5010867;28;20163;-76
2023/09/08 10:04:10;;;;;;;0.00;0.00;;;29.00;99.90;;;;;;5009779;28;20034;-75
2023/09/08 10:06:37;;;;;;;0.47;0.47;;;29.00;99.90;;;;;;5010834;28;20037;-76
2023/09/08 10:09:08;;;;;;;0.00;0.00;;;29.00;99.90;;;;;;5011176;28;20492;-77
2023/09/08 10:11:48;;;;;;;0.00;0.00;;;29.40;99.90;;;;;;4996412;28;20035;-77
2023/09/08 10:14:18;;;;;;;0.00;0.00;;;29.40;99.90;;;;;;5011162;28;20115;-75
2023/09/08 10:16:49;;;;;;;0.30;0.30;;;29.60;99.90;;;;;;5011051;28;20033;-76
2023/09/08 10:19:16;;;;;;;0.68;0.68;;;29.60;99.90;;;;;;5011335;28;20026;-74
2023/09/08 10:21:45;;;;;;;0.45;0.45;;;29.60;99.90;;;;;;5010867;28;20377;-75
2023/09/08 10:24:22;;;;;;;0.00;0.00;;;29.60;99.90;;;;;;5010933;28;20041;-76
2023/09/08 10:27:11;;;;;;;0.40;0.40;;;29.90;99.90;;;;;;5009755;28;20055;-75
2023/09/08 10:29:40;;;;;;;1.13;1.00;;;30.20;99.90;;;;;;5010782;28;20033;-74
2023/09/08 10:32:08;;;;;;;0.35;0.35;;;30.20;99.90;;;;;;5010519;28;20040;-75
2023/09/08 10:34:36;;;;;;;0.25;0.25;;;30.00;99.90;;;;;;5009768;28;20022;-76
2023/09/08 10:37:03;;;;;;;0.52;0.35;;;30.10;99.90;;;;;;5010732;28;20055;-73
2023/09/08 10:39:31;;;;;;;1.08;0.85;;;29.90;99.90;;;;;;5010934;28;20091;-74
2023/09/08 10:42:19;;;;;;;0.88;0.60;;;29.80;99.90;;;;;;5010561;28;20026;-74
2023/09/08 10:45:00;;;;;;;3.40;0.57;;;29.90;99.90;;;;;;5010943;28;20026;-73
2023/09/08 10:47:34;;;;;;;0.95;0.52;;;30.10;99.90;;;;;;5010611;28;20026;-74
2023/09/08 10:50:00;;;;;;;0.30;0.30;;;30.40;99.90;;;;;;5010548;28;20073;-73
2023/09/08 10:52:26;;;;;;;2.05;0.45;;;30.40;99.90;;;;;;5010924;28;20409;-75
2023/09/08 10:54:55;;;;;;;3.42;0.63;;;30.60;99.90;;;;;;5010609;28;20033;-74
2023/09/08 10:57:23;;;;;;;0.10;0.10;;;30.90;99.90;;;;;;5009968;28;20587;-72
2023/09/08 11:00:12;;;;;;;0.03;0.03;;;31.10;99.90;;;;;;5010103;28;20490;-72
2023/09/08 11:02:47;;;;;;;1.00;0.93;;;30.70;99.90;;;;;;5010426;28;20056;-73
2023/09/08 11:05:15;;;;;;;0.32;0.32;;;30.50;99.90;;;;;;5009656;28;20062;-73
2023/09/08 11:07:43;;;;;;;0.55;0.40;;;30.90;99.90;;;;;;5005422;28;20022;-73
2023/09/08 11:10:10;;;;;;;0.65;0.65;;;31.20;99.90;;;;;;5009990;28;20030;-73
2023/09/08 11:12:36;;;;;;;0.00;0.00;;;31.00;99.30;;;;;;5010075;28;20110;-75
2023/09/08 11:15:05;;;;;;;0.50;0.50;;;31.40;99.80;;;;;;5010058;28;20448;-74
2023/09/08 11:17:39;;;;;;;0.55;0.55;;;31.60;99.70;;;;;;5010232;28;20022;-74
2023/09/08 11:20:10;;;;;;;0.70;0.50;;;31.40;99.20;;;;;;5009967;28;20060;-74
2023/09/08 11:22:37;;;;;;;;;;;31.60;97.40;;;;;;5009398;28;20057;-72
2023/09/08 11:25:05;;;;;;;1.77;1.08;;;31.80;98.30;;;;;;5009682;28;19916;-73
2023/09/08 11:27:32;;;;;;;0.20;0.20;;;31.80;98.40;;;;;;5010241;28;20493;-74
2023/09/08 11:29:58;;;;;;;0.00;0.00;;;32.10;97.50;;;;;;5000599;28;20125;-76
2023/09/08 11:32:24;;;;;;;0.08;0.08;;;32.00;97.80;;;;;;4991030;28;20030;-72
2023/09/08 11:34:51;;;;;;;0.52;0.52;;;32.10;97.00;;;;;;5002856;28;20383;-72
2023/09/08 11:37:18;;;;;;;0.00;0.00;;;32.30;96.10;;;;;;4995578;28;20026;-76
2023/09/08 11:39:45;;;;;;;8.05;4.47;;;32.40;92.70;;;;;;5009771;28;20022;-74
2023/09/08 11:42:15;;;;;;;0.68;0.40;;;32.30;93.50;;;;;;5009445;28;20018;-73
2023/09/08 11:44:42;;;;;;;0.20;0.20;;;33.00;93.00;;;;;;4999300;28;20063;-72
2023/09/08 11:47:10;;;;;;;0.70;0.35;;;33.20;91.60;;;;;;5009784;28;20046;-73
2023/09/08 11:49:37;;;;;;;0.00;0.00;;;33.30;93.60;;;;;;5009613;28;20098;-73
2023/09/08 11:52:03;;;;;;;0.00;0.00;;;33.90;93.30;;;;;;5009825;28;20037;-75
2023/09/08 11:54:33;;;;;;;0.10;0.03;;;34.50;93.00;;;;;;5009711;28;20560;-73
2023/09/08 11:57:04;;;;;;;0.20;0.20;;;34.50;91.30;;;;;;4998480;28;20038;-73
2023/09/08 11:59:32;;;;;;;0.00;0.00;;;34.30;91.60;;;;;;5008667;28;20053;-72
2023/09/08 12:01:59;;;;;;;0.15;0.15;;;34.50;90.70;;;;;;5009409;28;20040;-77
2023/09/08 12:04:25;;;;;;;2.65;0.57;;;34.20;91.20;;;;;;5009413;28;20063;-73
2023/09/08 12:06:53;;;;;;;0.15;0.15;;;34.30;90.70;;;;;;5009474;28;20022;-73
2023/09/08 12:09:21;;;;;;;1.60;1.50;;;33.80;91.00;;;;;;5009538;28;20072;-72
2023/09/08 12:11:47;;;;;;;0.00;0.00;;;33.90;91.70;;;;;;5009480;28;20135;-73
2023/09/08 12:14:14;;;;;;;0.00;0.00;;;34.20;92.20;;;;;;5009450;28;20102;-73
2023/09/08 12:16:43;;;;;;;0.63;0.52;;;35.00;91.40;;;;;;5009603;28;20389;-73
2023/09/08 12:19:29;;;;;;;0.57;0.50;;;35.40;90.80;;;;;;5009193;28;20022;-72
2023/09/08 12:21:57;;;;;;;0.10;0.10;;;34.70;90.90;;;;;;5009311;28;20127;-76
2023/09/08 12:24:49;;;;;;;0.30;0.28;;;35.10;90.20;;;;;;5009432;28;20171;-74
2023/09/08 12:27:16;;;;;;;0.00;0.00;;;34.70;90.10;;;;;;5000828;28;20037;-73
2023/09/08 12:30:01;;;;;;;0.40;0.40;;;36.00;90.20;;;;;;5009041;28;20082;-75
2023/09/08 12:32:30;;;;;;;0.00;0.00;;;36.00;88.90;;;;;;5018243;28;20038;-73
2023/09/08 12:34:57;;;;;;;0.00;0.00;;;35.70;89.80;;;;;;5001438;28;20032;-76
2023/09/08 12:37:27;;;;;;;4.22;0.57;;;36.10;89.20;;;;;;5008981;28;20481;-73
2023/09/08 12:39:53;;;;;;;0.67;0.27;;;35.90;88.50;;;;;;5009094;28;20470;-75
2023/09/08 12:42:19;;;;;;;0.60;0.20;;;37.00;88.20;;;;;;5007692;28;20030;-73
2023/09/08 12:44:45;;;;;;;0.73;0.73;;;36.10;86.60;;;;;;5009114;28;20036;-75
2023/09/08 12:47:14;;;;;;;0.28;0.20;;;35.80;87.10;;;;;;5009375;28;20082;-74
2023/09/08 12:49:40;;;;;;;0.22;0.22;;;36.50;88.00;;;;;;5012162;28;20026;-73